sensor_id;sensor_type;location;lat;lon;timestamp;P1;durP1;ratioP1;P2;durP2;ratioP2
31464;SDS011;18089;47.428;15.006;2022-12-10T00:02:03;69.10;;;40.03;;
31464;SDS011;18089;47.428;15.006;2022-12-10T00:04:34;68.10;;;38.13;;
31464;SDS011;18089;47.428;15.006;2022-12-10T00:07:08;61.67;;;37.37;;
31464;SDS011;18089;47.428;15.006;2022-12-10T00:09:40;57.43;;;37.73;;
31464;SDS011;18089;47.428;15.006;2022-12-10T00:12:12;64.43;;;36.43;;
31464;SDS011;18089;47.428;15.006;2022-12-10T00:14:44;53.03;;;34.37;;
31464;SDS011;18089;47.428;15.006;2022-12-10T00:17:16;56.67;;;34.53;;
31464;SDS011;18089;47.428;15.006;2022-12-10T00:19:47;49.47;;;33.87;;
31464;SDS011;18089;47.428;15.006;2022-12-10T00:22:21;44.00;;;33.07;;
31464;SDS011;18089;47.428;15.006;2022-12-10T00:24:53;54.17;;;35.17;;
31464;SDS011;18089;47.428;15.006;2022-12-10T00:27:25;58.37;;;35.83;;
31464;SDS011;18089;47.428;15.006;2022-12-10T00:29:57;59.70;;;36.53;;
31464;SDS011;18089;47.428;15.006;2022-12-10T00:32:29;67.73;;;37.47;;
31464;SDS011;18089;47.428;15.006;2022-12-10T00:35:00;67.10;;;38.43;;
31464;SDS011;18089;47.428;15.006;2022-12-10T00:37:34;59.87;;;36.73;;
31464;SDS011;18089;47.428;15.006;2022-12-10T00:40:06;62.30;;;38.17;;
31464;SDS011;18089;47.428;15.006;2022-12-10T00:42:40;64.20;;;37.97;;
31464;SDS011;18089;47.428;15.006;2022-12-10T00:45:12;61.57;;;37.10;;
31464;SDS011;18089;47.428;15.006;2022-12-10T00:47:44;59.40;;;36.90;;
31464;SDS011;18089;47.428;15.006;2022-12-10T00:50:16;55.97;;;34.60;;
31464;SDS011;18089;47.428;15.006;2022-12-10T00:52:50;58.67;;;36.37;;
31464;SDS011;18089;47.428;15.006;2022-12-10T00:55:22;55.53;;;35.73;;
31464;SDS011;18089;47.428;15.006;2022-12-10T00:57:54;58.17;;;36.63;;
31464;SDS011;18089;47.428;15.006;2022-12-10T01:00:25;54.00;;;35.90;;
31464;SDS011;18089;47.428;15.006;2022-12-10T01:02:57;52.93;;;34.53;;
31464;SDS011;18089;47.428;15.006;2022-12-10T01:05:29;51.13;;;34.30;;
31464;SDS011;18089;47.428;15.006;2022-12-10T01:08:03;50.83;;;32.60;;
31464;SDS011;18089;47.428;15.006;2022-12-10T01:10:35;48.93;;;32.30;;
31464;SDS011;18089;47.428;15.006;2022-12-10T01:13:07;47.50;;;31.57;;
31464;SDS011;18089;47.428;15.006;2022-12-10T01:15:39;49.83;;;32.50;;
31464;SDS011;18089;47.428;15.006;2022-12-10T01:18:11;44.30;;;30.67;;
31464;SDS011;18089;47.428;15.006;2022-12-10T01:20:43;47.47;;;31.60;;
31464;SDS011;18089;47.428;15.006;2022-12-10T01:23:16;47.00;;;32.17;;
31464;SDS011;18089;47.428;15.006;2022-12-10T01:25:48;48.80;;;31.30;;
31464;SDS011;18089;47.428;15.006;2022-12-10T01:28:20;48.60;;;32.13;;
31464;SDS011;18089;47.428;15.006;2022-12-10T01:30:52;46.27;;;32.17;;
31464;SDS011;18089;47.428;15.006;2022-12-10T01:33:24;45.00;;;30.70;;
31464;SDS011;18089;47.428;15.006;2022-12-10T01:35:56;49.03;;;33.10;;
31464;SDS011;18089;47.428;15.006;2022-12-10T01:38:30;54.90;;;34.10;;
31464;SDS011;18089;47.428;15.006;2022-12-10T01:41:02;47.50;;;33.47;;
31464;SDS011;18089;47.428;15.006;2022-12-10T01:43:51;49.97;;;32.80;;
31464;SDS011;18089;47.428;15.006;2022-12-10T01:46:25;50.20;;;34.07;;
31464;SDS011;18089;47.428;15.006;2022-12-10T01:48:59;45.17;;;32.53;;
31464;SDS011;18089;47.428;15.006;2022-12-10T01:51:34;45.77;;;32.37;;
31464;SDS011;18089;47.428;15.006;2022-12-10T01:54:10;47.40;;;32.23;;
31464;SDS011;18089;47.428;15.006;2022-12-10T01:56:48;42.43;;;31.27;;
31464;SDS011;18089;47.428;15.006;2022-12-10T01:59:22;43.97;;;32.03;;
31464;SDS011;18089;47.428;15.006;2022-12-10T02:01:57;45.23;;;31.10;;
31464;SDS011;18089;47.428;15.006;2022-12-10T02:04:33;41.33;;;29.77;;
31464;SDS011;18089;47.428;15.006;2022-12-10T02:07:10;45.40;;;31.63;;
31464;SDS011;18089;47.428;15.006;2022-12-10T02:09:47;40.33;;;29.77;;
31464;SDS011;18089;47.428;15.006;2022-12-10T02:12:24;44.97;;;30.87;;
31464;SDS011;18089;47.428;15.006;2022-12-10T02:15:06;42.50;;;32.63;;
31464;SDS011;18089;47.428;15.006;2022-12-10T02:17:42;44.33;;;32.50;;
31464;SDS011;18089;47.428;15.006;2022-12-10T02:20:17;46.33;;;32.33;;
31464;SDS011;18089;47.428;15.006;2022-12-10T02:22:53;45.20;;;32.53;;
31464;SDS011;18089;47.428;15.006;2022-12-10T02:25:31;41.37;;;31.27;;
31464;SDS011;18089;47.428;15.006;2022-12-10T02:28:09;46.43;;;31.60;;
31464;SDS011;18089;47.428;15.006;2022-12-10T02:30:45;46.07;;;32.23;;
31464;SDS011;18089;47.428;15.006;2022-12-10T02:33:18;46.00;;;32.87;;
31464;SDS011;18089;47.428;15.006;2022-12-10T02:35:51;44.57;;;32.00;;
31464;SDS011;18089;47.428;15.006;2022-12-10T02:38:24;43.73;;;32.10;;
31464;SDS011;18089;47.428;15.006;2022-12-10T02:41:00;46.03;;;31.93;;
31464;SDS011;18089;47.428;15.006;2022-12-10T02:43:33;49.27;;;33.13;;
31464;SDS011;18089;47.428;15.006;2022-12-10T02:46:07;45.30;;;31.77;;
31464;SDS011;18089;47.428;15.006;2022-12-10T02:48:39;45.10;;;32.27;;
31464;SDS011;18089;47.428;15.006;2022-12-10T02:51:12;49.10;;;32.33;;
31464;SDS011;18089;47.428;15.006;2022-12-10T02:53:44;49.27;;;32.97;;
31464;SDS011;18089;47.428;15.006;2022-12-10T02:56:18;46.13;;;33.10;;
31464;SDS011;18089;47.428;15.006;2022-12-10T02:58:57;42.40;;;31.83;;
31464;SDS011;18089;47.428;15.006;2022-12-10T03:01:38;42.47;;;31.17;;
31464;SDS011;18089;47.428;15.006;2022-12-10T03:04:14;43.10;;;31.83;;
31464;SDS011;18089;47.428;15.006;2022-12-10T03:06:50;49.73;;;33.70;;
31464;SDS011;18089;47.428;15.006;2022-12-10T03:09:25;43.33;;;31.63;;
31464;SDS011;18089;47.428;15.006;2022-12-10T03:11:59;43.97;;;31.77;;
31464;SDS011;18089;47.428;15.006;2022-12-10T03:14:33;42.37;;;31.70;;
31464;SDS011;18089;47.428;15.006;2022-12-10T03:17:07;45.57;;;30.77;;
31464;SDS011;18089;47.428;15.006;2022-12-10T03:19:40;41.27;;;30.63;;
31464;SDS011;18089;47.428;15.006;2022-12-10T03:22:14;45.07;;;31.27;;
31464;SDS011;18089;47.428;15.006;2022-12-10T03:24:48;45.83;;;29.83;;
31464;SDS011;18089;47.428;15.006;2022-12-10T03:27:20;39.67;;;30.57;;
31464;SDS011;18089;47.428;15.006;2022-12-10T03:29:54;41.40;;;29.93;;
31464;SDS011;18089;47.428;15.006;2022-12-10T03:32:30;43.73;;;31.00;;
31464;SDS011;18089;47.428;15.006;2022-12-10T03:35:02;45.80;;;30.87;;
31464;SDS011;18089;47.428;15.006;2022-12-10T03:37:35;41.63;;;30.43;;
31464;SDS011;18089;47.428;15.006;2022-12-10T03:40:08;38.13;;;27.77;;
31464;SDS011;18089;47.428;15.006;2022-12-10T03:42:41;33.83;;;27.43;;
31464;SDS011;18089;47.428;15.006;2022-12-10T03:45:13;40.70;;;29.60;;
31464;SDS011;18089;47.428;15.006;2022-12-10T03:47:47;38.70;;;28.87;;
31464;SDS011;18089;47.428;15.006;2022-12-10T03:50:19;38.00;;;28.67;;
31464;SDS011;18089;47.428;15.006;2022-12-10T03:52:51;38.67;;;28.60;;
31464;SDS011;18089;47.428;15.006;2022-12-10T03:55:23;39.70;;;28.53;;
31464;SDS011;18089;47.428;15.006;2022-12-10T03:57:55;37.47;;;28.00;;
31464;SDS011;18089;47.428;15.006;2022-12-10T04:00:27;38.97;;;27.63;;
31464;SDS011;18089;47.428;15.006;2022-12-10T04:03:00;34.10;;;26.23;;
31464;SDS011;18089;47.428;15.006;2022-12-10T04:05:32;37.87;;;26.37;;
31464;SDS011;18089;47.428;15.006;2022-12-10T04:08:04;31.03;;;24.77;;
31464;SDS011;18089;47.428;15.006;2022-12-10T04:10:37;30.77;;;24.93;;
31464;SDS011;18089;47.428;15.006;2022-12-10T04:13:09;33.50;;;25.50;;
31464;SDS011;18089;47.428;15.006;2022-12-10T04:15:58;40.57;;;27.43;;
31464;SDS011;18089;47.428;15.006;2022-12-10T04:18:51;41.43;;;28.80;;
31464;SDS011;18089;47.428;15.006;2022-12-10T04:21:23;41.00;;;30.33;;
31464;SDS011;18089;47.428;15.006;2022-12-10T04:24:12;39.63;;;30.43;;
31464;SDS011;18089;47.428;15.006;2022-12-10T04:27:03;39.33;;;30.37;;
31464;SDS011;18089;47.428;15.006;2022-12-10T04:29:37;45.27;;;30.70;;
31464;SDS011;18089;47.428;15.006;2022-12-10T04:32:09;40.20;;;29.93;;
31464;SDS011;18089;47.428;15.006;2022-12-10T04:34:42;44.00;;;30.10;;
31464;SDS011;18089;47.428;15.006;2022-12-10T04:37:15;38.43;;;28.00;;
31464;SDS011;18089;47.428;15.006;2022-12-10T04:39:48;36.47;;;28.80;;
31464;SDS011;18089;47.428;15.006;2022-12-10T04:42:21;41.20;;;29.23;;
31464;SDS011;18089;47.428;15.006;2022-12-10T04:44:53;41.77;;;29.23;;
31464;SDS011;18089;47.428;15.006;2022-12-10T04:47:25;37.07;;;28.77;;
31464;SDS011;18089;47.428;15.006;2022-12-10T04:49:59;38.83;;;29.13;;
31464;SDS011;18089;47.428;15.006;2022-12-10T04:52:31;40.23;;;28.83;;
31464;SDS011;18089;47.428;15.006;2022-12-10T04:55:03;39.13;;;28.23;;
31464;SDS011;18089;47.428;15.006;2022-12-10T04:57:35;36.53;;;27.10;;
31464;SDS011;18089;47.428;15.006;2022-12-10T05:00:08;37.87;;;28.07;;
31464;SDS011;18089;47.428;15.006;2022-12-10T05:02:41;39.67;;;28.77;;
31464;SDS011;18089;47.428;15.006;2022-12-10T05:05:15;40.83;;;28.27;;
31464;SDS011;18089;47.428;15.006;2022-12-10T05:07:47;36.67;;;26.80;;
31464;SDS011;18089;47.428;15.006;2022-12-10T05:10:19;35.17;;;26.20;;
31464;SDS011;18089;47.428;15.006;2022-12-10T05:12:51;35.97;;;27.23;;
31464;SDS011;18089;47.428;15.006;2022-12-10T05:15:23;36.47;;;27.33;;
31464;SDS011;18089;47.428;15.006;2022-12-10T05:17:55;37.93;;;27.23;;
31464;SDS011;18089;47.428;15.006;2022-12-10T05:20:28;37.57;;;27.33;;
31464;SDS011;18089;47.428;15.006;2022-12-10T05:23:00;39.33;;;27.47;;
31464;SDS011;18089;47.428;15.006;2022-12-10T05:25:57;34.30;;;27.30;;
31464;SDS011;18089;47.428;15.006;2022-12-10T05:28:30;32.20;;;26.03;;
31464;SDS011;18089;47.428;15.006;2022-12-10T05:31:03;35.40;;;27.37;;
31464;SDS011;18089;47.428;15.006;2022-12-10T05:33:35;37.67;;;26.43;;
31464;SDS011;18089;47.428;15.006;2022-12-10T05:36:09;32.07;;;25.63;;
31464;SDS011;18089;47.428;15.006;2022-12-10T05:38:42;34.37;;;26.87;;
31464;SDS011;18089;47.428;15.006;2022-12-10T05:41:15;36.70;;;28.03;;
31464;SDS011;18089;47.428;15.006;2022-12-10T05:43:48;35.43;;;26.43;;
31464;SDS011;18089;47.428;15.006;2022-12-10T05:46:21;33.40;;;26.00;;
31464;SDS011;18089;47.428;15.006;2022-12-10T05:48:54;28.97;;;24.70;;
31464;SDS011;18089;47.428;15.006;2022-12-10T05:51:28;30.73;;;25.77;;
31464;SDS011;18089;47.428;15.006;2022-12-10T05:54:01;32.80;;;25.60;;
31464;SDS011;18089;47.428;15.006;2022-12-10T05:56:34;30.60;;;25.77;;
31464;SDS011;18089;47.428;15.006;2022-12-10T05:59:07;27.57;;;23.60;;
31464;SDS011;18089;47.428;15.006;2022-12-10T06:01:39;32.47;;;24.67;;
31464;SDS011;18089;47.428;15.006;2022-12-10T06:04:11;31.50;;;24.20;;
31464;SDS011;18089;47.428;15.006;2022-12-10T06:06:45;32.10;;;25.40;;
31464;SDS011;18089;47.428;15.006;2022-12-10T06:09:18;33.47;;;25.87;;
31464;SDS011;18089;47.428;15.006;2022-12-10T06:11:50;34.50;;;27.23;;
31464;SDS011;18089;47.428;15.006;2022-12-10T06:14:22;33.23;;;25.97;;
31464;SDS011;18089;47.428;15.006;2022-12-10T06:16:54;34.33;;;25.93;;
31464;SDS011;18089;47.428;15.006;2022-12-10T06:19:26;27.60;;;24.10;;
31464;SDS011;18089;47.428;15.006;2022-12-10T06:21:59;29.17;;;24.07;;
31464;SDS011;18089;47.428;15.006;2022-12-10T06:24:31;29.10;;;22.80;;
31464;SDS011;18089;47.428;15.006;2022-12-10T06:27:03;28.23;;;23.37;;
31464;SDS011;18089;47.428;15.006;2022-12-10T06:29:35;30.33;;;24.60;;
31464;SDS011;18089;47.428;15.006;2022-12-10T06:32:07;34.23;;;26.90;;
31464;SDS011;18089;47.428;15.006;2022-12-10T06:34:39;32.60;;;25.47;;
31464;SDS011;18089;47.428;15.006;2022-12-10T06:37:13;30.90;;;23.87;;
31464;SDS011;18089;47.428;15.006;2022-12-10T06:39:45;28.90;;;23.53;;
31464;SDS011;18089;47.428;15.006;2022-12-10T06:42:17;27.33;;;22.83;;
31464;SDS011;18089;47.428;15.006;2022-12-10T06:44:49;32.23;;;24.43;;
31464;SDS011;18089;47.428;15.006;2022-12-10T06:47:21;28.07;;;22.83;;
31464;SDS011;18089;47.428;15.006;2022-12-10T06:49:53;32.97;;;24.73;;
31464;SDS011;18089;47.428;15.006;2022-12-10T06:52:26;31.50;;;25.90;;
31464;SDS011;18089;47.428;15.006;2022-12-10T06:54:58;32.73;;;25.40;;
31464;SDS011;18089;47.428;15.006;2022-12-10T06:57:30;35.73;;;27.40;;
31464;SDS011;18089;47.428;15.006;2022-12-10T07:00:02;38.03;;;29.10;;
31464;SDS011;18089;47.428;15.006;2022-12-10T07:02:35;38.03;;;29.07;;
31464;SDS011;18089;47.428;15.006;2022-12-10T07:05:07;38.03;;;28.87;;
31464;SDS011;18089;47.428;15.006;2022-12-10T07:07:41;46.80;;;31.40;;
31464;SDS011;18089;47.428;15.006;2022-12-10T07:10:13;48.13;;;31.93;;
31464;SDS011;18089;47.428;15.006;2022-12-10T07:12:45;38.93;;;30.43;;
31464;SDS011;18089;47.428;15.006;2022-12-10T07:15:17;41.60;;;30.17;;
31464;SDS011;18089;47.428;15.006;2022-12-10T07:17:50;38.93;;;29.43;;
31464;SDS011;18089;47.428;15.006;2022-12-10T07:20:22;39.73;;;31.07;;
31464;SDS011;18089;47.428;15.006;2022-12-10T07:22:55;39.97;;;30.73;;
31464;SDS011;18089;47.428;15.006;2022-12-10T07:25:27;38.73;;;30.57;;
31464;SDS011;18089;47.428;15.006;2022-12-10T07:28:00;41.40;;;30.43;;
31464;SDS011;18089;47.428;15.006;2022-12-10T07:30:32;37.63;;;28.53;;
31464;SDS011;18089;47.428;15.006;2022-12-10T07:33:04;34.60;;;28.20;;
31464;SDS011;18089;47.428;15.006;2022-12-10T07:35:37;33.70;;;28.17;;
31464;SDS011;18089;47.428;15.006;2022-12-10T07:38:11;36.50;;;27.90;;
31464;SDS011;18089;47.428;15.006;2022-12-10T07:40:43;32.87;;;26.67;;
31464;SDS011;18089;47.428;15.006;2022-12-10T07:43:15;36.40;;;27.30;;
31464;SDS011;18089;47.428;15.006;2022-12-10T07:45:47;33.87;;;26.73;;
31464;SDS011;18089;47.428;15.006;2022-12-10T07:48:19;40.30;;;27.63;;
31464;SDS011;18089;47.428;15.006;2022-12-10T07:50:55;35.73;;;27.07;;
31464;SDS011;18089;47.428;15.006;2022-12-10T07:53:29;47.57;;;29.03;;
31464;SDS011;18089;47.428;15.006;2022-12-10T07:56:01;45.93;;;29.77;;
31464;SDS011;18089;47.428;15.006;2022-12-10T07:58:33;46.83;;;30.63;;
31464;SDS011;18089;47.428;15.006;2022-12-10T08:01:06;48.83;;;31.97;;
31464;SDS011;18089;47.428;15.006;2022-12-10T08:03:38;58.90;;;36.20;;
31464;SDS011;18089;47.428;15.006;2022-12-10T08:06:11;53.70;;;34.97;;
31464;SDS011;18089;47.428;15.006;2022-12-10T08:08:46;70.87;;;40.70;;
31464;SDS011;18089;47.428;15.006;2022-12-10T08:11:19;58.30;;;34.87;;
31464;SDS011;18089;47.428;15.006;2022-12-10T08:13:51;58.60;;;34.60;;
31464;SDS011;18089;47.428;15.006;2022-12-10T08:16:24;66.43;;;38.03;;
31464;SDS011;18089;47.428;15.006;2022-12-10T08:18:58;61.73;;;36.93;;
31464;SDS011;18089;47.428;15.006;2022-12-10T08:21:31;59.23;;;37.90;;
31464;SDS011;18089;47.428;15.006;2022-12-10T08:24:05;58.23;;;37.63;;
31464;SDS011;18089;47.428;15.006;2022-12-10T08:26:37;53.07;;;35.17;;
31464;SDS011;18089;47.428;15.006;2022-12-10T08:29:09;183.10;;;98.47;;
31464;SDS011;18089;47.428;15.006;2022-12-10T08:31:41;53.97;;;36.03;;
31464;SDS011;18089;47.428;15.006;2022-12-10T08:34:14;50.40;;;34.53;;
31464;SDS011;18089;47.428;15.006;2022-12-10T08:36:47;49.97;;;34.03;;
31464;SDS011;18089;47.428;15.006;2022-12-10T08:39:20;61.27;;;38.73;;
31464;SDS011;18089;47.428;15.006;2022-12-10T08:41:52;51.23;;;34.03;;
31464;SDS011;18089;47.428;15.006;2022-12-10T08:44:24;41.77;;;30.97;;
31464;SDS011;18089;47.428;15.006;2022-12-10T08:46:56;47.80;;;32.00;;
31464;SDS011;18089;47.428;15.006;2022-12-10T08:49:28;48.23;;;33.57;;
31464;SDS011;18089;47.428;15.006;2022-12-10T08:52:00;51.27;;;35.60;;
31464;SDS011;18089;47.428;15.006;2022-12-10T08:54:34;58.33;;;37.00;;
31464;SDS011;18089;47.428;15.006;2022-12-10T08:57:06;50.70;;;36.23;;
31464;SDS011;18089;47.428;15.006;2022-12-10T08:59:38;52.47;;;37.27;;
31464;SDS011;18089;47.428;15.006;2022-12-10T09:02:10;47.73;;;35.63;;
31464;SDS011;18089;47.428;15.006;2022-12-10T09:04:42;40.07;;;31.37;;
31464;SDS011;18089;47.428;15.006;2022-12-10T09:07:16;40.70;;;31.87;;
31464;SDS011;18089;47.428;15.006;2022-12-10T09:09:49;54.67;;;36.13;;
31464;SDS011;18089;47.428;15.006;2022-12-10T09:12:21;51.27;;;34.83;;
31464;SDS011;18089;47.428;15.006;2022-12-10T09:14:53;44.87;;;30.37;;
31464;SDS011;18089;47.428;15.006;2022-12-10T09:17:26;52.13;;;34.33;;
31464;SDS011;18089;47.428;15.006;2022-12-10T09:19:58;43.40;;;32.03;;
31464;SDS011;18089;47.428;15.006;2022-12-10T09:22:30;43.00;;;32.07;;
31464;SDS011;18089;47.428;15.006;2022-12-10T09:25:04;39.70;;;30.60;;
31464;SDS011;18089;47.428;15.006;2022-12-10T09:27:37;42.27;;;28.77;;
31464;SDS011;18089;47.428;15.006;2022-12-10T09:30:10;35.30;;;27.13;;
31464;SDS011;18089;47.428;15.006;2022-12-10T09:32:43;31.87;;;26.50;;
31464;SDS011;18089;47.428;15.006;2022-12-10T09:35:15;35.93;;;28.13;;
31464;SDS011;18089;47.428;15.006;2022-12-10T09:37:47;30.33;;;25.90;;
31464;SDS011;18089;47.428;15.006;2022-12-10T09:40:24;33.93;;;26.23;;
31464;SDS011;18089;47.428;15.006;2022-12-10T09:43:02;35.27;;;27.67;;
31464;SDS011;18089;47.428;15.006;2022-12-10T09:45:40;37.77;;;27.50;;
31464;SDS011;18089;47.428;15.006;2022-12-10T09:48:20;33.43;;;27.13;;
31464;SDS011;18089;47.428;15.006;2022-12-10T09:50:57;26.83;;;23.00;;
31464;SDS011;18089;47.428;15.006;2022-12-10T09:53:34;24.63;;;21.67;;
31464;SDS011;18089;47.428;15.006;2022-12-10T09:56:11;24.23;;;21.60;;
31464;SDS011;18089;47.428;15.006;2022-12-10T09:58:49;25.27;;;22.43;;
31464;SDS011;18089;47.428;15.006;2022-12-10T10:01:23;32.20;;;24.97;;
31464;SDS011;18089;47.428;15.006;2022-12-10T10:03:57;35.80;;;25.90;;
31464;SDS011;18089;47.428;15.006;2022-12-10T10:06:29;40.73;;;29.47;;
31464;SDS011;18089;47.428;15.006;2022-12-10T10:09:01;41.03;;;29.10;;
31464;SDS011;18089;47.428;15.006;2022-12-10T10:11:35;44.50;;;30.03;;
31464;SDS011;18089;47.428;15.006;2022-12-10T10:14:09;29.13;;;25.07;;
31464;SDS011;18089;47.428;15.006;2022-12-10T10:16:44;35.07;;;27.53;;
31464;SDS011;18089;47.428;15.006;2022-12-10T10:19:21;30.13;;;25.77;;
31464;SDS011;18089;47.428;15.006;2022-12-10T10:21:57;31.20;;;25.33;;
31464;SDS011;18089;47.428;15.006;2022-12-10T10:24:33;31.20;;;25.47;;
31464;SDS011;18089;47.428;15.006;2022-12-10T10:27:12;32.60;;;24.77;;
31464;SDS011;18089;47.428;15.006;2022-12-10T10:29:46;32.93;;;26.43;;
31464;SDS011;18089;47.428;15.006;2022-12-10T10:32:21;32.13;;;25.23;;
31464;SDS011;18089;47.428;15.006;2022-12-10T10:34:54;29.70;;;24.83;;
31464;SDS011;18089;47.428;15.006;2022-12-10T10:37:28;28.57;;;23.77;;
31464;SDS011;18089;47.428;15.006;2022-12-10T10:40:02;31.67;;;25.63;;
31464;SDS011;18089;47.428;15.006;2022-12-10T10:42:36;27.57;;;22.70;;
31464;SDS011;18089;47.428;15.006;2022-12-10T10:48:05;22.43;;;19.93;;
31464;SDS011;18089;47.428;15.006;2022-12-10T10:50:43;21.33;;;19.10;;
31464;SDS011;18089;47.428;15.006;2022-12-10T10:53:23;21.90;;;19.60;;
31464;SDS011;18089;47.428;15.006;2022-12-10T10:56:09;24.33;;;21.30;;
31464;SDS011;18089;47.428;15.006;2022-12-10T10:58:50;23.73;;;21.23;;
31464;SDS011;18089;47.428;15.006;2022-12-10T11:01:43;24.50;;;19.37;;
31464;SDS011;18089;47.428;15.006;2022-12-10T11:04:17;21.93;;;19.80;;
31464;SDS011;18089;47.428;15.006;2022-12-10T11:06:59;21.83;;;19.57;;
31464;SDS011;18089;47.428;15.006;2022-12-10T11:09:33;20.30;;;18.10;;
31464;SDS011;18089;47.428;15.006;2022-12-10T11:12:07;19.73;;;17.83;;
31464;SDS011;18089;47.428;15.006;2022-12-10T11:14:55;18.90;;;17.17;;
31464;SDS011;18089;47.428;15.006;2022-12-10T11:17:27;18.57;;;16.67;;
31464;SDS011;18089;47.428;15.006;2022-12-10T11:20:00;19.93;;;17.93;;
31464;SDS011;18089;47.428;15.006;2022-12-10T11:22:48;18.20;;;16.50;;
31464;SDS011;18089;47.428;15.006;2022-12-10T11:25:24;19.93;;;17.93;;
31464;SDS011;18089;47.428;15.006;2022-12-10T11:28:07;19.47;;;17.57;;
31464;SDS011;18089;47.428;15.006;2022-12-10T11:30:51;20.80;;;18.63;;
31464;SDS011;18089;47.428;15.006;2022-12-10T11:33:31;19.93;;;18.03;;
31464;SDS011;18089;47.428;15.006;2022-12-10T11:36:07;21.70;;;18.87;;
31464;SDS011;18089;47.428;15.006;2022-12-10T11:38:49;47.57;;;29.43;;
31464;SDS011;18089;47.428;15.006;2022-12-10T11:41:24;17.33;;;15.60;;
31464;SDS011;18089;47.428;15.006;2022-12-10T11:44:09;16.70;;;15.00;;
31464;SDS011;18089;47.428;15.006;2022-12-10T11:49:40;17.47;;;15.87;;
31464;SDS011;18089;47.428;15.006;2022-12-10T11:52:18;19.43;;;17.47;;
31464;SDS011;18089;47.428;15.006;2022-12-10T11:55:01;19.27;;;17.30;;
31464;SDS011;18089;47.428;15.006;2022-12-10T11:57:39;18.87;;;17.00;;
31464;SDS011;18089;47.428;15.006;2022-12-10T12:00:17;22.07;;;19.37;;
31464;SDS011;18089;47.428;15.006;2022-12-10T12:02:58;25.70;;;21.90;;
31464;SDS011;18089;47.428;15.006;2022-12-10T12:05:42;24.00;;;21.17;;
31464;SDS011;18089;47.428;15.006;2022-12-10T12:08:23;21.27;;;18.97;;
31464;SDS011;18089;47.428;15.006;2022-12-10T12:11:00;20.30;;;18.10;;
31464;SDS011;18089;47.428;15.006;2022-12-10T12:13:38;20.08;;;18.08;;
31464;SDS011;18089;47.428;15.006;2022-12-10T12:16:15;19.08;;;17.23;;
31464;SDS011;18089;47.428;15.006;2022-12-10T12:18:53;22.95;;;20.58;;
31464;SDS011;18089;47.428;15.006;2022-12-10T12:21:28;20.80;;;18.70;;
31464;SDS011;18089;47.428;15.006;2022-12-10T12:24:01;20.23;;;18.00;;
31464;SDS011;18089;47.428;15.006;2022-12-10T12:26:37;20.60;;;18.50;;
31464;SDS011;18089;47.428;15.006;2022-12-10T12:29:13;21.93;;;19.47;;
31464;SDS011;18089;47.428;15.006;2022-12-10T12:31:48;24.60;;;19.90;;
31464;SDS011;18089;47.428;15.006;2022-12-10T12:34:32;21.80;;;19.43;;
31464;SDS011;18089;47.428;15.006;2022-12-10T12:37:11;21.57;;;19.33;;
31464;SDS011;18089;47.428;15.006;2022-12-10T12:39:46;20.83;;;18.60;;
31464;SDS011;18089;47.428;15.006;2022-12-10T12:42:22;21.23;;;18.93;;
31464;SDS011;18089;47.428;15.006;2022-12-10T12:44:58;21.40;;;19.30;;
31464;SDS011;18089;47.428;15.006;2022-12-10T12:47:34;20.70;;;18.73;;
31464;SDS011;18089;47.428;15.006;2022-12-10T12:50:15;20.17;;;18.17;;
31464;SDS011;18089;47.428;15.006;2022-12-10T12:52:56;20.83;;;18.73;;
31464;SDS011;18089;47.428;15.006;2022-12-10T12:55:31;20.40;;;18.50;;
31464;SDS011;18089;47.428;15.006;2022-12-10T12:58:15;19.40;;;17.40;;
31464;SDS011;18089;47.428;15.006;2022-12-10T13:00:52;21.63;;;19.07;;
31464;SDS011;18089;47.428;15.006;2022-12-10T13:03:29;22.53;;;20.07;;
31464;SDS011;18089;47.428;15.006;2022-12-10T13:06:13;22.70;;;20.30;;
31464;SDS011;18089;47.428;15.006;2022-12-10T13:08:46;23.50;;;20.70;;
31464;SDS011;18089;47.428;15.006;2022-12-10T13:11:28;22.77;;;19.83;;
31464;SDS011;18089;47.428;15.006;2022-12-10T13:14:13;26.27;;;21.93;;
31464;SDS011;18089;47.428;15.006;2022-12-10T13:17:22;24.80;;;21.97;;
31464;SDS011;18089;47.428;15.006;2022-12-10T13:23:02;27.07;;;22.10;;
31464;SDS011;18089;47.428;15.006;2022-12-10T13:25:39;37.97;;;25.67;;
31464;SDS011;18089;47.428;15.006;2022-12-10T13:28:17;30.60;;;22.60;;
31464;SDS011;18089;47.428;15.006;2022-12-10T13:33:52;33.73;;;23.20;;
31464;SDS011;18089;47.428;15.006;2022-12-10T13:36:35;46.17;;;29.03;;
31464;SDS011;18089;47.428;15.006;2022-12-10T13:39:20;46.40;;;29.13;;
31464;SDS011;18089;47.428;15.006;2022-12-10T13:45:29;60.67;;;32.83;;
31464;SDS011;18089;47.428;15.006;2022-12-10T13:48:17;39.03;;;25.80;;
31464;SDS011;18089;47.428;15.006;2022-12-10T13:53:54;37.53;;;25.97;;
31464;SDS011;18089;47.428;15.006;2022-12-10T13:56:34;34.60;;;24.63;;
31464;SDS011;18089;47.428;15.006;2022-12-10T13:59:18;33.13;;;24.37;;
31464;SDS011;18089;47.428;15.006;2022-12-10T14:01:59;32.47;;;23.80;;
31464;SDS011;18089;47.428;15.006;2022-12-10T14:07:36;35.33;;;24.33;;
31464;SDS011;18089;47.428;15.006;2022-12-10T14:10:09;35.23;;;23.17;;
31464;SDS011;18089;47.428;15.006;2022-12-10T14:12:46;31.70;;;23.93;;
31464;SDS011;18089;47.428;15.006;2022-12-10T14:15:19;30.60;;;24.33;;
31464;SDS011;18089;47.428;15.006;2022-12-10T14:17:54;24.00;;;21.47;;
31464;SDS011;18089;47.428;15.006;2022-12-10T14:20:31;20.77;;;18.67;;
31464;SDS011;18089;47.428;15.006;2022-12-10T14:23:05;19.20;;;17.33;;
31464;SDS011;18089;47.428;15.006;2022-12-10T14:26:05;19.77;;;17.77;;
31464;SDS011;18089;47.428;15.006;2022-12-10T14:28:42;19.80;;;17.90;;
31464;SDS011;18089;47.428;15.006;2022-12-10T14:31:16;19.60;;;17.60;;
31464;SDS011;18089;47.428;15.006;2022-12-10T14:33:59;18.10;;;16.37;;
31464;SDS011;18089;47.428;15.006;2022-12-10T14:36:34;19.83;;;17.83;;
31464;SDS011;18089;47.428;15.006;2022-12-10T14:39:11;20.60;;;18.50;;
31464;SDS011;18089;47.428;15.006;2022-12-10T14:41:45;24.50;;;20.87;;
31464;SDS011;18089;47.428;15.006;2022-12-10T14:44:20;27.97;;;21.70;;
31464;SDS011;18089;47.428;15.006;2022-12-10T14:47:01;24.57;;;21.33;;
31464;SDS011;18089;47.428;15.006;2022-12-10T14:49:38;28.23;;;23.07;;
31464;SDS011;18089;47.428;15.006;2022-12-10T14:52:12;42.90;;;29.73;;
31464;SDS011;18089;47.428;15.006;2022-12-10T14:54:44;30.37;;;23.13;;
31464;SDS011;18089;47.428;15.006;2022-12-10T14:57:18;47.37;;;30.43;;
31464;SDS011;18089;47.428;15.006;2022-12-10T14:59:57;29.70;;;23.80;;
31464;SDS011;18089;47.428;15.006;2022-12-10T15:02:35;26.00;;;22.60;;
31464;SDS011;18089;47.428;15.006;2022-12-10T15:05:10;26.37;;;22.27;;
31464;SDS011;18089;47.428;15.006;2022-12-10T15:07:42;27.77;;;22.27;;
31464;SDS011;18089;47.428;15.006;2022-12-10T15:10:23;24.27;;;21.10;;
31464;SDS011;18089;47.428;15.006;2022-12-10T15:12:57;23.33;;;19.60;;
31464;SDS011;18089;47.428;15.006;2022-12-10T15:15:33;27.13;;;21.07;;